Time;durP1;ratioP1;P1;durP2;ratioP2;P2;SDS_P1;SDS_P2;PMS_P1;PMS_P2;Temp;Humidity;BMP_temperature;BMP_pressure;BME280_temperature;BME280_humidity;BME280_pressure;Samples;Min_cycle;Max_cycle;Signal;HPM_P1;HPM_P2
2024/02/16 00:01:30;;;;;;;20.77;13.98;;;;;;;;;;4967613;28;20078;-76
2024/02/16 00:03:55;;;;;;;20.63;13.30;;;;;;;;;;4965564;28;20421;-76
2024/02/16 00:06:20;;;;;;;18.40;12.20;;;;;;;;;;4967815;28;20035;-76
2024/02/16 00:08:46;;;;;;;19.40;12.98;;;;;;;;;;4961326;28;20071;-75
2024/02/16 00:11:11;;;;;;;17.67;12.73;;;;;;;;;;4966641;28;20042;-76
2024/02/16 00:13:37;;;;;;;20.42;13.55;;;;;;;;;;4968597;28;20077;-76
2024/02/16 00:16:02;;;;;;;16.75;11.57;;;;;;;;;;4968926;28;20047;-76
2024/02/16 00:18:27;;;;;;;19.17;12.23;;;;;;;;;;4970247;28;20166;-76
2024/02/16 00:20:52;;;;;;;23.08;14.27;;;;;;;;;;4966876;28;20038;-76
2024/02/16 00:23:22;;;;;;;22.92;14.20;;;;;;;;;;4966818;28;20034;-76
2024/02/16 00:25:47;;;;;;;23.10;14.95;;;;;;;;;;4972035;28;20041;-76
2024/02/16 00:28:12;;;;;;;16.40;11.63;;;;;;;;;;4972487;28;20038;-76
2024/02/16 00:30:38;;;;;;;19.33;12.25;;;;;;;;;;4969020;28;20023;-75
2024/02/16 00:33:03;;;;;;;18.90;12.88;;;;;;;;;;4969593;28;20030;-75
2024/02/16 00:35:33;;;;;;;20.77;11.70;;;;;;;;;;4967322;28;20495;-76
2024/02/16 00:37:58;;;;;;;17.15;11.15;;;;;;;;;;4966888;28;20039;-75
2024/02/16 00:40:23;;;;;;;20.05;12.77;;;;;;;;;;4972994;28;20045;-75
2024/02/16 00:42:48;;;;;;;16.83;11.73;;;;;;;;;;4970738;28;20146;-75
2024/02/16 00:45:14;;;;;;;17.35;11.60;;;;;;;;;;4970638;28;20391;-75
2024/02/16 00:47:39;;;;;;;18.88;12.45;;;;;;;;;;4986111;28;20038;-76
2024/02/16 00:50:08;;;;;;;21.90;13.32;;;;;;;;;;4966856;28;20094;-76
2024/02/16 00:52:33;;;;;;;19.45;11.88;;;;;;;;;;4966807;28;20392;-76
2024/02/16 00:54:58;;;;;;;20.02;12.55;;;;;;;;;;4971863;28;20035;-76
2024/02/16 00:57:24;;;;;;;17.83;11.95;;;;;;;;;;4972509;28;20042;-76
2024/02/16 00:59:49;;;;;;;18.33;11.70;;;;;;;;;;4967693;28;20038;-76
2024/02/16 01:02:16;;;;;;;15.85;10.52;;;;;;;;;;4968433;28;20429;-76
2024/02/16 01:04:41;;;;;;;18.88;11.85;;;;;;;;;;4963346;28;20038;-76
2024/02/16 01:07:06;;;;;;;17.35;12.15;;;;;;;;;;4986542;28;20570;-76
2024/02/16 01:09:32;;;;;;;16.63;11.05;;;;;;;;;;4971969;28;20046;-76
2024/02/16 01:11:57;;;;;;;20.65;13.07;;;;;;;;;;4969123;28;20035;-76
2024/02/16 01:14:22;;;;;;;20.35;12.50;;;;;;;;;;4983974;28;20027;-76
2024/02/16 01:16:47;;;;;;;19.38;11.88;;;;;;;;;;4966721;28;20061;-77
2024/02/16 01:19:13;;;;;;;18.55;12.48;;;;;;;;;;4970977;28;20038;-77
2024/02/16 01:21:38;;;;;;;19.83;12.20;;;;;;;;;;4969072;28;20054;-76
2024/02/16 01:24:03;;;;;;;19.55;12.40;;;;;;;;;;4970500;28;20030;-76
2024/02/16 01:26:29;;;;;;;19.15;11.80;;;;;;;;;;4967389;28;20034;-76
2024/02/16 01:28:54;;;;;;;16.42;11.07;;;;;;;;;;4969872;28;20042;-76
2024/02/16 01:31:19;;;;;;;17.15;11.50;;;;;;;;;;4966663;28;20027;-77
2024/02/16 01:33:45;;;;;;;18.90;11.88;;;;;;;;;;4965237;28;20023;-76
2024/02/16 01:36:10;;;;;;;17.02;11.20;;;;;;;;;;4972535;28;20038;-76
2024/02/16 01:38:36;;;;;;;14.90;10.20;;;;;;;;;;4970273;28;20035;-77
2024/02/16 01:41:01;;;;;;;14.27;9.80;;;;;;;;;;4983050;28;20117;-76
2024/02/16 01:43:27;;;;;;;17.83;10.43;;;;;;;;;;4967029;28;20400;-76
2024/02/16 01:45:52;;;;;;;16.52;11.00;;;;;;;;;;4967678;28;20039;-76
2024/02/16 01:48:18;;;;;;;19.30;13.10;;;;;;;;;;4965400;28;20118;-77
2024/02/16 01:50:43;;;;;;;19.90;10.80;;;;;;;;;;4985116;28;20034;-76
2024/02/16 01:53:09;;;;;;;17.33;10.80;;;;;;;;;;4977588;28;20027;-77
2024/02/16 01:55:35;;;;;;;15.95;9.65;;;;;;;;;;4969604;28;20030;-77
2024/02/16 01:58:00;;;;;;;21.95;9.60;;;;;;;;;;4978675;28;20035;-76
2024/02/16 02:00:25;;;;;;;17.50;10.85;;;;;;;;;;4964005;28;20050;-76
2024/02/16 02:02:51;;;;;;;17.17;11.20;;;;;;;;;;4969865;28;20040;-76
2024/02/16 02:05:16;;;;;;;17.38;11.60;;;;;;;;;;4971030;28;20407;-76
2024/02/16 02:07:42;;;;;;;16.20;10.25;;;;;;;;;;4969080;28;20038;-76
2024/02/16 02:10:08;;;;;;;17.05;9.32;;;;;;;;;;4967666;28;20050;-76
2024/02/16 02:12:33;;;;;;;19.50;12.55;;;;;;;;;;4964791;28;20023;-76
2024/02/16 02:14:59;;;;;;;17.98;10.68;;;;;;;;;;4963777;28;20054;-76
2024/02/16 02:17:24;;;;;;;16.58;11.32;;;;;;;;;;4971416;28;20026;-77
2024/02/16 02:19:49;;;;;;;16.85;11.25;;;;;;;;;;4977497;28;20034;-76
2024/02/16 02:22:18;;;;;;;19.45;12.52;;;;;;;;;;4968696;28;20050;-77
2024/02/16 02:24:46;;;;;;;24.70;14.75;;;;;;;;;;4964704;28;20027;-76
2024/02/16 02:27:12;;;;;;;20.80;13.68;;;;;;;;;;4967096;28;20380;-76
2024/02/16 02:29:38;;;;;;;18.60;11.13;;;;;;;;;;4964891;28;20034;-76
2024/02/16 02:32:04;;;;;;;20.35;10.95;;;;;;;;;;4969976;28;20096;-77
2024/02/16 02:34:29;;;;;;;15.32;8.77;;;;;;;;;;4969717;28;20065;-76
2024/02/16 02:36:54;;;;;;;15.38;10.27;;;;;;;;;;4967000;28;20038;-76
2024/02/16 02:39:19;;;;;;;14.52;9.10;;;;;;;;;;4967145;28;20038;-76
2024/02/16 02:41:44;;;;;;;14.65;9.75;;;;;;;;;;4961542;28;20109;-77
2024/02/16 02:44:10;;;;;;;19.00;11.88;;;;;;;;;;4971499;28;20035;-76
2024/02/16 02:46:36;;;;;;;19.00;11.80;;;;;;;;;;4970667;28;20035;-76
2024/02/16 02:49:01;;;;;;;20.60;12.88;;;;;;;;;;4961748;28;20404;-77
2024/02/16 02:51:27;;;;;;;21.75;13.93;;;;;;;;;;4966969;28;20484;-76
2024/02/16 02:53:52;;;;;;;21.45;12.65;;;;;;;;;;4978546;28;20027;-76
2024/02/16 02:56:18;;;;;;;23.10;14.77;;;;;;;;;;4964954;28;20181;-77
2024/02/16 02:58:43;;;;;;;17.35;11.15;;;;;;;;;;4967654;28;20034;-75
2024/02/16 03:01:09;;;;;;;17.42;11.82;;;;;;;;;;4977934;28;20039;-76
2024/02/16 03:03:34;;;;;;;18.83;11.98;;;;;;;;;;4967730;28;20023;-76
2024/02/16 03:05:59;;;;;;;18.92;12.00;;;;;;;;;;4966638;28;20042;-76
2024/02/16 03:08:25;;;;;;;21.10;13.27;;;;;;;;;;4964571;28;20057;-76
2024/02/16 03:10:50;;;;;;;18.60;12.27;;;;;;;;;;4961522;28;20031;-76
2024/02/16 03:13:18;;;;;;;15.40;10.18;;;;;;;;;;4970836;28;20033;-77
2024/02/16 03:15:43;;;;;;;15.63;10.40;;;;;;;;;;4983681;28;20431;-76
2024/02/16 03:18:08;;;;;;;13.63;9.10;;;;;;;;;;4965397;28;20026;-76
2024/02/16 03:20:34;;;;;;;16.60;10.07;;;;;;;;;;4979411;28;20101;-76
2024/02/16 03:22:59;;;;;;;16.63;10.93;;;;;;;;;;4967237;28;20073;-76
2024/02/16 03:25:25;;;;;;;16.00;9.98;;;;;;;;;;4967420;28;20027;-76
2024/02/16 03:27:51;;;;;;;17.33;10.57;;;;;;;;;;4969467;28;20554;-76
2024/02/16 03:30:16;;;;;;;16.70;9.02;;;;;;;;;;4968183;28;20117;-76
2024/02/16 03:32:41;;;;;;;17.35;10.23;;;;;;;;;;4965771;28;20035;-78
2024/02/16 03:35:06;;;;;;;15.80;9.75;;;;;;;;;;4981492;28;20050;-77
2024/02/16 03:37:31;;;;;;;18.92;11.70;;;;;;;;;;4963473;28;20093;-77
2024/02/16 03:39:57;;;;;;;18.08;11.35;;;;;;;;;;4966638;28;20563;-77
2024/02/16 03:42:22;;;;;;;20.52;12.55;;;;;;;;;;4970155;28;20027;-77
2024/02/16 03:44:48;;;;;;;19.33;11.45;;;;;;;;;;4967070;28;20037;-78
2024/02/16 03:47:13;;;;;;;20.05;13.32;;;;;;;;;;4967403;28;20034;-77
2024/02/16 03:49:39;;;;;;;15.63;9.35;;;;;;;;;;4968152;28;20046;-77
2024/02/16 03:52:04;;;;;;;14.38;8.90;;;;;;;;;;4963161;28;20078;-77
2024/02/16 03:54:29;;;;;;;14.75;9.40;;;;;;;;;;4967545;28;20415;-77
2024/02/16 03:56:55;;;;;;;14.75;9.43;;;;;;;;;;4968694;28;20028;-77
2024/02/16 03:59:20;;;;;;;14.60;9.63;;;;;;;;;;4983664;28;20039;-78
2024/02/16 04:01:46;;;;;;;18.27;9.88;;;;;;;;;;4965787;28;20023;-77
2024/02/16 04:04:11;;;;;;;14.25;8.10;;;;;;;;;;4965821;28;20122;-77
2024/02/16 04:06:36;;;;;;;14.43;9.57;;;;;;;;;;4964747;28;20396;-78
2024/02/16 04:09:02;;;;;;;19.70;11.50;;;;;;;;;;4969921;28;20106;-78
2024/02/16 04:11:29;;;;;;;18.85;11.65;;;;;;;;;;4969160;28;20396;-78
2024/02/16 04:13:54;;;;;;;18.70;11.00;;;;;;;;;;4965868;28;20095;-78
2024/02/16 04:16:22;;;;;;;18.40;11.48;;;;;;;;;;4966500;28;20023;-78
2024/02/16 04:18:47;;;;;;;18.55;10.60;;;;;;;;;;4964538;28;20122;-78
2024/02/16 04:21:12;;;;;;;15.95;10.48;;;;;;;;;;4967348;28;20523;-78
2024/02/16 04:23:37;;;;;;;17.35;10.32;;;;;;;;;;4985150;28;20030;-78
2024/02/16 04:26:02;;;;;;;16.13;9.88;;;;;;;;;;4968141;28;20062;-78
2024/02/16 04:28:28;;;;;;;15.95;9.43;;;;;;;;;;4967426;28;20057;-77
2024/02/16 04:30:53;;;;;;;15.60;9.43;;;;;;;;;;4959693;28;20408;-78
2024/02/16 04:33:18;;;;;;;17.45;11.23;;;;;;;;;;4962516;28;20125;-78
2024/02/16 04:35:46;;;;;;;15.27;10.30;;;;;;;;;;4982623;28;20038;-77
2024/02/16 04:38:11;;;;;;;14.95;10.07;;;;;;;;;;4969610;28;20031;-78
2024/02/16 04:40:37;;;;;;;17.95;10.40;;;;;;;;;;4967182;28;20085;-78
2024/02/16 04:43:02;;;;;;;15.90;9.93;;;;;;;;;;4965690;28;20061;-77
2024/02/16 04:45:30;;;;;;;14.75;9.15;;;;;;;;;;4964513;28;20082;-78
2024/02/16 04:47:55;;;;;;;16.30;10.23;;;;;;;;;;4963427;28;20046;-78
2024/02/16 04:50:20;;;;;;;15.10;9.75;;;;;;;;;;4970096;28;20535;-78
2024/02/16 04:52:45;;;;;;;15.68;10.13;;;;;;;;;;4962851;28;20031;-77
2024/02/16 04:55:11;;;;;;;16.42;10.32;;;;;;;;;;4968001;28;20061;-78
2024/02/16 04:57:36;;;;;;;14.25;9.40;;;;;;;;;;4965074;28;20510;-78
2024/02/16 05:00:02;;;;;;;16.77;9.35;;;;;;;;;;4963008;28;20070;-78
2024/02/16 05:02:27;;;;;;;13.82;8.70;;;;;;;;;;4966284;28;20043;-78
2024/02/16 05:04:52;;;;;;;14.07;8.93;;;;;;;;;;4971417;28;20033;-78
2024/02/16 05:07:18;;;;;;;13.75;9.05;;;;;;;;;;4971909;28;20026;-78
2024/02/16 05:09:44;;;;;;;13.00;8.68;;;;;;;;;;4969044;28;20023;-78
2024/02/16 05:12:09;;;;;;;12.70;8.50;;;;;;;;;;4968586;28;20114;-78
2024/02/16 05:14:35;;;;;;;11.80;7.50;;;;;;;;;;4969624;28;20122;-78
2024/02/16 05:17:00;;;;;;;16.05;8.38;;;;;;;;;;4972241;28;20037;-78
2024/02/16 05:19:25;;;;;;;13.90;9.38;;;;;;;;;;4971332;28;20097;-77
2024/02/16 05:21:50;;;;;;;15.63;10.23;;;;;;;;;;4972749;28;20105;-77
2024/02/16 05:24:16;;;;;;;16.52;10.85;;;;;;;;;;4972552;28;20090;-77
2024/02/16 05:26:41;;;;;;;18.35;11.07;;;;;;;;;;4971073;28;20580;-77
2024/02/16 05:29:06;;;;;;;23.13;12.93;;;;;;;;;;4966813;28;20042;-77
2024/02/16 05:31:31;;;;;;;20.38;12.20;;;;;;;;;;4969422;28;20030;-77
2024/02/16 05:33:57;;;;;;;15.52;11.05;;;;;;;;;;4970847;28;20039;-77
2024/02/16 05:36:27;;;;;;;15.80;10.55;;;;;;;;;;4972240;28;20061;-77
2024/02/16 05:38:54;;;;;;;18.92;11.77;;;;;;;;;;4971597;28;20034;-77
2024/02/16 05:41:19;;;;;;;20.20;11.25;;;;;;;;;;4977458;28;20070;-77
2024/02/16 05:43:45;;;;;;;16.65;11.35;;;;;;;;;;4968625;28;20066;-78
2024/02/16 05:46:14;;;;;;;20.83;12.50;;;;;;;;;;4971232;28;20038;-77
2024/02/16 05:48:39;;;;;;;13.90;9.43;;;;;;;;;;4970655;28;20062;-78
2024/02/16 05:51:08;;;;;;;18.23;11.98;;;;;;;;;;4968800;28;20109;-78
2024/02/16 05:53:33;;;;;;;20.80;11.68;;;;;;;;;;4963951;28;20058;-78
2024/02/16 05:55:58;;;;;;;14.68;9.23;;;;;;;;;;4969886;28;20073;-77
2024/02/16 05:58:24;;;;;;;15.98;8.90;;;;;;;;;;4973607;28;20027;-78
2024/02/16 06:00:49;;;;;;;15.95;10.77;;;;;;;;;;4972271;28;20030;-78
2024/02/16 06:03:14;;;;;;;20.55;13.80;;;;;;;;;;4972479;28;20034;-77
2024/02/16 06:05:46;;;;;;;21.15;13.18;;;;;;;;;;4968107;28;20031;-78
2024/02/16 06:08:11;;;;;;;20.97;12.33;;;;;;;;;;4971890;28;20043;-78
2024/02/16 06:10:36;;;;;;;17.63;11.93;;;;;;;;;;4968969;28;20034;-77
2024/02/16 06:13:01;;;;;;;18.20;12.02;;;;;;;;;;4971620;28;20030;-78
2024/02/16 06:15:27;;;;;;;17.17;10.95;;;;;;;;;;4970380;28;20043;-77
2024/02/16 06:17:52;;;;;;;15.70;9.70;;;;;;;;;;4967533;28;20032;-78
2024/02/16 06:20:17;;;;;;;16.52;10.20;;;;;;;;;;4967861;28;20109;-78
2024/02/16 06:22:42;;;;;;;19.98;11.50;;;;;;;;;;4965032;28;20059;-76
2024/02/16 06:25:08;;;;;;;17.25;10.25;;;;;;;;;;4964640;28;20030;-76
2024/02/16 06:27:33;;;;;;;16.67;10.25;;;;;;;;;;4971979;28;20031;-77
2024/02/16 06:29:58;;;;;;;14.75;10.48;;;;;;;;;;4970895;28;20035;-77
2024/02/16 06:32:24;;;;;;;16.60;10.52;;;;;;;;;;4968545;28;20034;-76
2024/02/16 06:34:49;;;;;;;16.67;10.57;;;;;;;;;;4964995;28;20031;-76
2024/02/16 06:37:14;;;;;;;17.67;11.65;;;;;;;;;;4969418;28;20092;-77
2024/02/16 06:39:40;;;;;;;16.73;11.15;;;;;;;;;;4965068;28;20031;-76
2024/02/16 06:42:05;;;;;;;17.45;10.75;;;;;;;;;;4970099;28;20504;-77
2024/02/16 06:44:30;;;;;;;18.42;12.20;;;;;;;;;;4969600;28;20074;-77
2024/02/16 06:46:55;;;;;;;17.10;11.27;;;;;;;;;;4968083;28;20097;-77
2024/02/16 06:49:21;;;;;;;23.30;15.40;;;;;;;;;;4981866;28;20455;-76
2024/02/16 06:51:46;;;;;;;22.45;15.48;;;;;;;;;;4962295;28;20027;-77
2024/02/16 06:54:11;;;;;;;18.52;12.73;;;;;;;;;;4967715;28;20035;-76
2024/02/16 06:56:36;;;;;;;17.58;12.10;;;;;;;;;;4970639;28;20022;-76
2024/02/16 06:59:02;;;;;;;17.88;12.73;;;;;;;;;;4967651;28;20039;-76
2024/02/16 07:01:27;;;;;;;19.83;12.77;;;;;;;;;;4968718;28;20158;-77
2024/02/16 07:03:53;;;;;;;19.63;12.43;;;;;;;;;;4952843;28;20057;-76
2024/02/16 07:06:18;;;;;;;20.58;13.80;;;;;;;;;;4980281;28;20403;-77
2024/02/16 07:08:44;;;;;;;17.40;11.68;;;;;;;;;;4971154;28;20043;-76
2024/02/16 07:11:11;;;;;;;18.27;12.63;;;;;;;;;;4968785;28;20102;-77
2024/02/16 07:13:37;;;;;;;16.63;11.63;;;;;;;;;;4968846;28;20035;-77
2024/02/16 07:16:11;;;;;;;22.27;14.82;;;;;;;;;;4963548;28;20038;-77
2024/02/16 07:18:36;;;;;;;21.20;13.57;;;;;;;;;;4965649;28;20082;-77
2024/02/16 07:21:04;;;;;;;20.48;14.13;;;;;;;;;;4965809;28;20035;-77
2024/02/16 07:23:29;;;;;;;19.75;13.32;;;;;;;;;;4970825;28;20023;-76
2024/02/16 07:25:56;;;;;;;16.00;11.88;;;;;;;;;;4968276;28;20027;-77
2024/02/16 07:28:22;;;;;;;18.75;13.13;;;;;;;;;;4983797;28;20618;-77
2024/02/16 07:30:47;;;;;;;17.45;12.52;;;;;;;;;;4962087;28;20066;-77
2024/02/16 07:33:12;;;;;;;19.02;13.43;;;;;;;;;;4964356;28;20037;-77
2024/02/16 07:35:38;;;;;;;20.10;14.30;;;;;;;;;;4960203;28;20031;-77
2024/02/16 07:38:03;;;;;;;19.60;13.05;;;;;;;;;;4970728;28;20497;-77
2024/02/16 07:40:28;;;;;;;18.33;12.88;;;;;;;;;;4969242;28;20035;-77
2024/02/16 07:42:54;;;;;;;26.88;18.08;;;;;;;;;;4968736;28;20082;-77
2024/02/16 07:45:19;;;;;;;25.65;16.65;;;;;;;;;;4979333;28;20057;-77
2024/02/16 07:47:45;;;;;;;26.30;17.73;;;;;;;;;;4967890;28;20023;-77
2024/02/16 07:50:10;;;;;;;19.05;13.57;;;;;;;;;;4964324;28;20113;-77
2024/02/16 07:52:37;;;;;;;17.08;12.90;;;;;;;;;;4970180;28;20018;-77
2024/02/16 07:55:02;;;;;;;17.92;13.27;;;;;;;;;;4964807;28;20027;-77
2024/02/16 07:57:27;;;;;;;19.17;13.68;;;;;;;;;;4966436;28;20030;-77
2024/02/16 07:59:53;;;;;;;19.55;13.70;;;;;;;;;;4962499;28;20118;-77
2024/02/16 08:02:19;;;;;;;20.13;14.85;;;;;;;;;;4963941;28;20042;-77
2024/02/16 08:04:51;;;;;;;18.27;13.38;;;;;;;;;;4981732;28;20109;-77
2024/02/16 08:07:16;;;;;;;17.63;12.45;;;;;;;;;;4970362;28;20035;-77
2024/02/16 08:09:45;;;;;;;22.02;13.85;;;;;;;;;;4964837;28;20027;-77
2024/02/16 08:12:10;;;;;;;16.90;12.05;;;;;;;;;;4965836;28;20045;-77
2024/02/16 08:14:37;;;;;;;19.50;13.70;;;;;;;;;;4966062;28;20030;-77
2024/02/16 08:17:02;;;;;;;19.65;13.48;;;;;;;;;;4965903;28;20035;-77
2024/02/16 08:19:31;;;;;;;17.33;12.48;;;;;;;;;;4970489;28;20373;-77
2024/02/16 08:21:56;;;;;;;17.85;12.10;;;;;;;;;;4967319;28;20035;-77
2024/02/16 08:24:22;;;;;;;16.90;12.27;;;;;;;;;;4967739;28;20031;-77
2024/02/16 08:26:47;;;;;;;16.80;11.90;;;;;;;;;;4966729;28;20282;-77
2024/02/16 08:29:12;;;;;;;17.57;12.60;;;;;;;;;;4967730;28;20297;-77
2024/02/16 08:31:37;;;;;;;15.50;11.40;;;;;;;;;;4963638;28;20274;-78
2024/02/16 08:34:06;;;;;;;14.43;11.13;;;;;;;;;;4984038;28;20063;-76
2024/02/16 08:36:32;;;;;;;15.73;11.63;;;;;;;;;;4969260;28;20041;-78
2024/02/16 08:38:57;;;;;;;18.43;13.60;;;;;;;;;;4969940;28;20031;-77
2024/02/16 08:41:24;;;;;;;24.50;18.50;;;;;;;;;;4985194;28;20429;-78
2024/02/16 08:43:49;;;;;;;22.38;16.63;;;;;;;;;;4965521;28;20038;-76
2024/02/16 08:46:14;;;;;;;19.40;13.65;;;;;;;;;;4970526;28;20035;-77
2024/02/16 08:48:40;;;;;;;16.00;12.45;;;;;;;;;;4973775;28;20046;-77
2024/02/16 08:51:06;;;;;;;25.00;14.93;;;;;;;;;;4969751;28;20027;-78
2024/02/16 08:53:31;;;;;;;17.40;11.80;;;;;;;;;;4970226;28;20027;-77
2024/02/16 08:55:56;;;;;;;17.03;11.63;;;;;;;;;;4966108;28;20195;-77
2024/02/16 08:58:21;;;;;;;22.60;13.60;;;;;;;;;;4971287;28;20278;-77
2024/02/16 09:00:48;;;;;;;17.87;10.70;;;;;;;;;;4975680;28;20027;-78
2024/02/16 09:03:24;;;;;;;17.85;12.65;;;;;;;;;;4972507;28;20282;-78
2024/02/16 09:05:49;;;;;;;16.70;13.20;;;;;;;;;;4969127;28;20034;-77
2024/02/16 09:08:14;;;;;;;15.23;11.63;;;;;;;;;;4968826;28;20033;-77
2024/02/16 09:10:40;;;;;;;15.98;11.32;;;;;;;;;;4966107;28;20373;-77
2024/02/16 09:13:05;;;;;;;13.55;10.70;;;;;;;;;;4969126;28;20457;-77
2024/02/16 09:15:30;;;;;;;15.25;10.80;;;;;;;;;;4973110;28;20042;-77
2024/02/16 09:17:55;;;;;;;13.97;9.87;;;;;;;;;;4986923;28;20035;-77
2024/02/16 09:20:39;;;;;;;14.05;9.85;;;;;;;;;;4972016;28;20278;-78
2024/02/16 09:23:08;;;;;;;12.98;8.82;;;;;;;;;;4981955;28;20538;-78
2024/02/16 09:25:34;;;;;;;13.57;9.40;;;;;;;;;;4963985;28;20066;-78
2024/02/16 09:27:59;;;;;;;16.35;11.15;;;;;;;;;;4971709;28;20057;-78
2024/02/16 09:30:24;;;;;;;16.13;11.23;;;;;;;;;;4971693;28;20490;-78
2024/02/16 09:32:50;;;;;;;15.67;11.03;;;;;;;;;;4969585;28;20110;-77
2024/02/16 09:35:15;;;;;;;13.95;10.18;;;;;;;;;;4983996;28;20278;-78
2024/02/16 09:37:40;;;;;;;13.15;9.20;;;;;;;;;;4967838;28;20046;-78
2024/02/16 09:40:06;;;;;;;14.15;9.27;;;;;;;;;;4967590;28;20038;-76
2024/02/16 09:42:37;;;;;;;15.77;11.13;;;;;;;;;;4970239;28;20023;-78
2024/02/16 09:45:03;;;;;;;14.55;9.70;;;;;;;;;;4970211;28;20492;-78
2024/02/16 09:47:32;;;;;;;12.23;9.15;;;;;;;;;;4984573;28;20110;-77
2024/02/16 09:49:57;;;;;;;11.20;8.07;;;;;;;;;;4965451;28;20118;-77
2024/02/16 09:52:24;;;;;;;12.87;8.43;;;;;;;;;;4967482;28;20065;-77
2024/02/16 09:54:49;;;;;;;14.38;8.55;;;;;;;;;;4966457;28;20278;-77
2024/02/16 09:57:19;;;;;;;12.13;8.83;;;;;;;;;;4970570;28;20154;-78
2024/02/16 09:59:45;;;;;;;12.13;9.10;;;;;;;;;;4971325;28;20262;-78
2024/02/16 10:02:11;;;;;;;17.27;10.05;;;;;;;;;;4983933;28;20062;-78
2024/02/16 10:04:37;;;;;;;16.45;10.80;;;;;;;;;;4985191;28;20035;-77
2024/02/16 10:07:04;;;;;;;13.57;10.23;;;;;;;;;;4980257;28;20038;-78
2024/02/16 10:09:30;;;;;;;16.95;12.25;;;;;;;;;;4968125;28;20123;-78
2024/02/16 10:11:55;;;;;;;17.13;11.05;;;;;;;;;;4967093;28;20090;-77
2024/02/16 10:14:20;;;;;;;13.77;8.70;;;;;;;;;;4967991;28;20034;-78
2024/02/16 10:16:47;;;;;;;12.75;8.50;;;;;;;;;;4967132;28;20301;-78
2024/02/16 10:19:12;;;;;;;13.38;8.65;;;;;;;;;;4972800;28;20038;-77
2024/02/16 10:21:39;;;;;;;13.90;9.55;;;;;;;;;;4978497;28;20031;-77
2024/02/16 10:24:08;;;;;;;17.40;10.48;;;;;;;;;;4970618;28;20031;-78
2024/02/16 10:26:37;;;;;;;14.38;10.25;;;;;;;;;;4971230;28;20031;-78
2024/02/16 10:29:03;;;;;;;14.88;9.98;;;;;;;;;;4967204;28;20072;-77
2024/02/16 10:31:29;;;;;;;13.50;8.73;;;;;;;;;;4981367;28;20066;-78
2024/02/16 10:34:05;;;;;;;15.93;11.05;;;;;;;;;;4964618;28;20031;-78
2024/02/16 10:36:31;;;;;;;14.32;10.20;;;;;;;;;;4969583;28;20102;-78
2024/02/16 10:38:57;;;;;;;14.35;11.02;;;;;;;;;;4971105;28;20073;-78
2024/02/16 10:41:26;;;;;;;11.65;8.57;;;;;;;;;;4971197;28;20118;-78
2024/02/16 10:43:51;;;;;;;11.65;9.00;;;;;;;;;;4962117;28;20039;-78
2024/02/16 10:46:17;;;;;;;11.50;8.68;;;;;;;;;;4966548;28;20030;-78
2024/02/16 10:48:42;;;;;;;12.80;8.73;;;;;;;;;;4983370;28;20038;-78
2024/02/16 10:51:08;;;;;;;15.20;9.40;;;;;;;;;;4967925;28;20542;-78
2024/02/16 10:53:43;;;;;;;14.48;9.02;;;;;;;;;;4971219;28;20301;-78
2024/02/16 10:56:09;;;;;;;10.95;8.10;;;;;;;;;;4970621;28;20042;-78
2024/02/16 10:58:34;;;;;;;10.70;8.20;;;;;;;;;;5022719;23;20042;-77
2024/02/16 11:01:07;;;;;;;14.88;9.35;;;;;;;;;;4977075;28;20030;-77
2024/02/16 11:03:32;;;;;;;14.35;9.93;;;;;;;;;;4972868;28;20034;-77
2024/02/16 11:05:58;;;;;;;12.63;9.43;;;;;;;;;;4972505;28;20030;-77
2024/02/16 11:08:26;;;;;;;14.48;10.90;;;;;;;;;;4989224;28;20273;-77
2024/02/16 11:10:54;;;;;;;12.40;8.90;;;;;;;;;;4993268;28;20030;-76
2024/02/16 11:13:25;;;;;;;10.90;7.10;;;;;;;;;;4990207;28;20479;-77
2024/02/16 11:15:56;;;;;;;13.00;7.38;;;;;;;;;;4990475;28;20466;-78
2024/02/16 11:18:22;;;;;;;11.38;8.23;;;;;;;;;;4991290;28;20042;-76
2024/02/16 11:20:48;;;;;;;10.90;7.32;;;;;;;;;;4989257;28;20037;-76
2024/02/16 11:23:14;;;;;;;10.23;7.57;;;;;;;;;;4990063;28;20061;-76
2024/02/16 11:25:39;;;;;;;14.88;9.63;;;;;;;;;;4990453;28;20071;-76
2024/02/16 11:28:05;;;;;;;13.15;8.95;;;;;;;;;;4987413;28;20398;-76
2024/02/16 11:30:36;;;;;;;12.00;9.50;;;;;;;;;;4988004;28;20806;-76
2024/02/16 11:33:03;;;;;;;10.73;7.50;;;;;;;;;;4988095;28;20043;-76
2024/02/16 11:35:28;;;;;;;12.68;9.07;;;;;;;;;;4983029;28;20032;-76
2024/02/16 11:37:55;;;;;;;12.40;8.87;;;;;;;;;;4992909;28;20026;-76
2024/02/16 11:40:20;;;;;;;10.70;8.02;;;;;;;;;;4990166;28;20281;-76
2024/02/16 11:42:46;;;;;;;12.73;9.00;;;;;;;;;;4987395;28;20446;-76
2024/02/16 11:45:12;;;;;;;11.43;7.70;;;;;;;;;;5014422;28;20035;-76
2024/02/16 11:47:37;;;;;;;20.27;12.30;;;;;;;;;;4982478;28;20601;-77
2024/02/16 11:50:03;;;;;;;14.23;10.23;;;;;;;;;;4986290;28;20038;-77
2024/02/16 11:52:28;;;;;;;13.48;9.05;;;;;;;;;;4986577;28;20310;-76
2024/02/16 11:54:54;;;;;;;10.85;8.23;;;;;;;;;;4987361;28;20026;-77
2024/02/16 11:57:19;;;;;;;11.02;8.68;;;;;;;;;;4990713;28;20060;-76
2024/02/16 11:59:44;;;;;;;13.70;8.00;;;;;;;;;;4990434;28;20759;-77
2024/02/16 12:02:16;;;;;;;11.52;7.85;;;;;;;;;;4990306;28;20654;-77
2024/02/16 12:04:42;;;;;;;12.85;9.13;;;;;;;;;;4986078;28;20511;-77
2024/02/16 12:07:07;;;;;;;13.20;10.15;;;;;;;;;;4989492;28;20064;-77
2024/02/16 12:09:34;;;;;;;11.98;8.90;;;;;;;;;;4989354;28;20073;-77
2024/02/16 12:11:59;;;;;;;12.70;9.80;;;;;;;;;;4990159;28;20042;-77
2024/02/16 12:14:25;;;;;;;20.87;10.40;;;;;;;;;;4993678;28;20037;-77
2024/02/16 12:16:57;;;;;;;13.63;8.15;;;;;;;;;;4994201;28;20313;-77
2024/02/16 12:19:22;;;;;;;11.32;7.35;;;;;;;;;;4994071;28;20042;-77
2024/02/16 12:21:48;;;;;;;10.93;7.50;;;;;;;;;;4993757;28;20037;-77
2024/02/16 12:24:13;;;;;;;10.13;7.50;;;;;;;;;;4994022;28;20030;-77
2024/02/16 12:26:41;;;;;;;12.13;7.87;;;;;;;;;;4999707;28;20030;-77
2024/02/16 12:29:06;;;;;;;11.77;8.40;;;;;;;;;;4993925;28;20297;-77
2024/02/16 12:31:31;;;;;;;10.77;8.30;;;;;;;;;;4994093;28;20081;-77
2024/02/16 12:33:56;;;;;;;11.45;9.25;;;;;;;;;;4993914;28;20038;-77
2024/02/16 12:36:22;;;;;;;12.43;8.30;;;;;;;;;;4994403;28;20475;-77
2024/02/16 12:38:48;;;;;;;10.25;7.90;;;;;;;;;;4993965;28;20292;-77
2024/02/16 12:41:13;;;;;;;10.25;7.90;;;;;;;;;;4993509;28;20030;-77
2024/02/16 12:43:39;;;;;;;9.50;7.43;;;;;;;;;;4996286;28;20034;-77
2024/02/16 12:46:04;;;;;;;10.52;8.02;;;;;;;;;;4994215;28;20285;-77
2024/02/16 12:48:29;;;;;;;12.27;9.55;;;;;;;;;;4990007;28;20062;-77
2024/02/16 12:50:55;;;;;;;11.80;8.60;;;;;;;;;;4993427;28;20038;-77
2024/02/16 12:53:20;;;;;;;20.58;9.43;;;;;;;;;;4994351;28;20038;-77
2024/02/16 12:55:46;;;;;;;10.68;8.75;;;;;;;;;;4993797;28;20035;-77
2024/02/16 12:58:12;;;;;;;12.65;8.00;;;;;;;;;;4993610;28;20413;-77
2024/02/16 13:00:38;;;;;;;11.48;9.00;;;;;;;;;;4994799;28;20034;-77
2024/02/16 13:03:03;;;;;;;12.65;9.48;;;;;;;;;;4993764;28;20034;-77
2024/02/16 13:05:30;;;;;;;11.15;8.55;;;;;;;;;;4993965;28;20221;-77
2024/02/16 13:07:55;;;;;;;12.55;9.85;;;;;;;;;;4990300;28;20042;-77
2024/02/16 13:10:21;;;;;;;12.48;8.75;;;;;;;;;;4993095;28;20037;-77
2024/02/16 13:12:46;;;;;;;11.20;8.35;;;;;;;;;;4993570;28;20034;-77
2024/02/16 13:15:11;;;;;;;12.70;8.88;;;;;;;;;;4993197;28;20418;-77
2024/02/16 13:17:36;;;;;;;11.57;8.77;;;;;;;;;;4996697;28;20077;-77
2024/02/16 13:20:09;;;;;;;10.90;8.70;;;;;;;;;;4993337;28;20050;-77
2024/02/16 13:22:35;;;;;;;15.05;10.75;;;;;;;;;;4989786;28;20099;-77
2024/02/16 13:25:00;;;;;;;12.27;9.27;;;;;;;;;;4990584;28;20474;-77
2024/02/16 13:27:25;;;;;;;12.32;9.25;;;;;;;;;;4993306;28;20042;-77
2024/02/16 13:29:51;;;;;;;13.47;9.93;;;;;;;;;;4991370;28;20411;-77
2024/02/16 13:32:17;;;;;;;15.23;10.13;;;;;;;;;;4992549;28;20278;-77
2024/02/16 13:34:42;;;;;;;13.82;11.63;;;;;;;;;;4991532;28;20102;-77
2024/02/16 13:37:07;;;;;;;12.80;10.57;;;;;;;;;;4992569;28;20071;-76
2024/02/16 13:39:32;;;;;;;12.03;9.87;;;;;;;;;;4989807;28;20277;-77
2024/02/16 13:41:57;;;;;;;12.17;8.57;;;;;;;;;;4992647;28;20288;-77
2024/02/16 13:44:23;;;;;;;13.07;8.68;;;;;;;;;;4993032;28;20285;-77
2024/02/16 13:46:48;;;;;;;16.55;11.30;;;;;;;;;;4992863;28;20038;-76
2024/02/16 13:49:16;;;;;;;12.65;9.88;;;;;;;;;;4992403;28;20037;-77
2024/02/16 13:51:42;;;;;;;10.82;9.38;;;;;;;;;;4992608;28;20038;-77
2024/02/16 13:54:07;;;;;;;10.88;8.32;;;;;;;;;;4992387;28;20411;-77
2024/02/16 13:56:32;;;;;;;12.37;9.37;;;;;;;;;;4987348;28;20042;-77
2024/02/16 13:58:57;;;;;;;11.40;8.27;;;;;;;;;;4992185;28;20296;-76
2024/02/16 14:01:22;;;;;;;12.27;9.10;;;;;;;;;;4982719;28;20265;-77
2024/02/16 14:03:49;;;;;;;11.82;7.45;;;;;;;;;;4992598;28;20871;-77
2024/02/16 14:06:14;;;;;;;9.07;7.13;;;;;;;;;;4992940;28;20034;-77
2024/02/16 14:08:39;;;;;;;10.07;7.00;;;;;;;;;;4992153;28;20081;-77
2024/02/16 14:11:05;;;;;;;10.23;8.47;;;;;;;;;;4990164;28;20658;-77
2024/02/16 14:13:30;;;;;;;11.05;8.43;;;;;;;;;;5003787;28;20311;-77